sensor_id;sensor_type;location;lat;lon;timestamp;temperature;humidity
36186;DHT22;22228;53.222;7.446;2022-12-29T00:01:30;9.60;99.90
36186;DHT22;22228;53.222;7.446;2022-12-29T00:03:51;9.60;99.90
36186;DHT22;22228;53.222;7.446;2022-12-29T00:06:14;9.60;99.90
36186;DHT22;22228;53.222;7.446;2022-12-29T00:08:34;9.60;99.90
36186;DHT22;22228;53.222;7.446;2022-12-29T00:11:01;9.60;99.90
36186;DHT22;22228;53.222;7.446;2022-12-29T00:13:28;9.60;99.90
36186;DHT22;22228;53.222;7.446;2022-12-29T00:16:07;9.70;99.90
36186;DHT22;22228;53.222;7.446;2022-12-29T00:18:35;9.70;99.90
36186;DHT22;22228;53.222;7.446;2022-12-29T00:21:23;9.80;99.90
36186;DHT22;22228;53.222;7.446;2022-12-29T00:24:11;9.80;99.90
36186;DHT22;22228;53.222;7.446;2022-12-29T00:26:58;9.80;99.90
36186;DHT22;22228;53.222;7.446;2022-12-29T00:29:43;9.80;99.90
36186;DHT22;22228;53.222;7.446;2022-12-29T00:32:23;9.80;99.90
36186;DHT22;22228;53.222;7.446;2022-12-29T00:35:02;9.80;99.90
36186;DHT22;22228;53.222;7.446;2022-12-29T00:37:38;9.80;99.90
36186;DHT22;22228;53.222;7.446;2022-12-29T00:40:18;9.90;99.90
36186;DHT22;22228;53.222;7.446;2022-12-29T00:42:57;9.90;99.90
36186;DHT22;22228;53.222;7.446;2022-12-29T00:45:36;9.90;99.90
36186;DHT22;22228;53.222;7.446;2022-12-29T00:48:31;9.90;99.90
36186;DHT22;22228;53.222;7.446;2022-12-29T00:51:15;9.90;99.90
36186;DHT22;22228;53.222;7.446;2022-12-29T00:53:35;9.90;99.90
36186;DHT22;22228;53.222;7.446;2022-12-29T00:59:10;9.80;99.90
36186;DHT22;22228;53.222;7.446;2022-12-29T01:01:31;9.80;99.90
36186;DHT22;22228;53.222;7.446;2022-12-29T01:03:59;9.80;99.90
36186;DHT22;22228;53.222;7.446;2022-12-29T01:06:21;9.80;99.90
36186;DHT22;22228;53.222;7.446;2022-12-29T01:08:42;9.70;99.90
36186;DHT22;22228;53.222;7.446;2022-12-29T01:11:05;9.70;99.90
36186;DHT22;22228;53.222;7.446;2022-12-29T01:13:25;9.80;99.90
36186;DHT22;22228;53.222;7.446;2022-12-29T04:00:34;10.40;99.90
36186;DHT22;22228;53.222;7.446;2022-12-29T04:02:56;10.40;99.90
36186;DHT22;22228;53.222;7.446;2022-12-29T04:05:17;10.40;99.90
36186;DHT22;22228;53.222;7.446;2022-12-29T04:07:39;10.40;99.90
36186;DHT22;22228;53.222;7.446;2022-12-29T04:10:04;10.30;99.90
36186;DHT22;22228;53.222;7.446;2022-12-29T04:12:54;10.30;99.90
36186;DHT22;22228;53.222;7.446;2022-12-29T04:15:19;10.30;99.90
36186;DHT22;22228;53.222;7.446;2022-12-29T04:17:43;10.30;99.90
36186;DHT22;22228;53.222;7.446;2022-12-29T04:20:28;10.20;99.90
36186;DHT22;22228;53.222;7.446;2022-12-29T04:23:09;10.20;99.90
36186;DHT22;22228;53.222;7.446;2022-12-29T04:25:32;10.20;99.90
36186;DHT22;22228;53.222;7.446;2022-12-29T04:27:53;10.20;99.90
36186;DHT22;22228;53.222;7.446;2022-12-29T04:31:03;10.20;99.90
36186;DHT22;22228;53.222;7.446;2022-12-29T04:33:41;10.20;99.90
36186;DHT22;22228;53.222;7.446;2022-12-29T04:36:05;10.20;99.90
36186;DHT22;22228;53.222;7.446;2022-12-29T04:38:59;10.30;99.90
36186;DHT22;22228;53.222;7.446;2022-12-29T04:41:20;10.30;99.90
36186;DHT22;22228;53.222;7.446;2022-12-29T04:43:42;10.30;99.90
36186;DHT22;22228;53.222;7.446;2022-12-29T04:46:33;10.30;99.90
36186;DHT22;22228;53.222;7.446;2022-12-29T04:49:02;10.30;99.90
36186;DHT22;22228;53.222;7.446;2022-12-29T04:51:46;10.30;99.90
36186;DHT22;22228;53.222;7.446;2022-12-29T04:54:08;10.20;99.90
36186;DHT22;22228;53.222;7.446;2022-12-29T04:56:30;10.30;99.90
36186;DHT22;22228;53.222;7.446;2022-12-29T04:58:50;10.30;99.90
36186;DHT22;22228;53.222;7.446;2022-12-29T05:01:13;10.30;99.90
36186;DHT22;22228;53.222;7.446;2022-12-29T05:03:34;10.30;99.90
36186;DHT22;22228;53.222;7.446;2022-12-29T05:05:57;10.30;99.90
36186;DHT22;22228;53.222;7.446;2022-12-29T05:08:19;10.30;99.90
36186;DHT22;22228;53.222;7.446;2022-12-29T05:10:44;10.20;99.90
36186;DHT22;22228;53.222;7.446;2022-12-29T05:13:07;10.10;99.90
36186;DHT22;22228;53.222;7.446;2022-12-29T05:15:54;10.00;99.90
36186;DHT22;22228;53.222;7.446;2022-12-29T05:18:22;10.00;99.90
36186;DHT22;22228;53.222;7.446;2022-12-29T05:20:43;9.90;99.90
36186;DHT22;22228;53.222;7.446;2022-12-29T05:23:06;9.90;99.90
36186;DHT22;22228;53.222;7.446;2022-12-29T05:25:27;9.90;99.90
36186;DHT22;22228;53.222;7.446;2022-12-29T05:28:31;9.90;99.90
36186;DHT22;22228;53.222;7.446;2022-12-29T05:31:02;9.80;99.90
36186;DHT22;22228;53.222;7.446;2022-12-29T05:33:25;9.80;99.90
36186;DHT22;22228;53.222;7.446;2022-12-29T05:35:48;9.80;99.90
36186;DHT22;22228;53.222;7.446;2022-12-29T05:38:09;9.70;99.90
36186;DHT22;22228;53.222;7.446;2022-12-29T05:40:31;9.70;99.90
36186;DHT22;22228;53.222;7.446;2022-12-29T05:42:58;9.80;99.90
36186;DHT22;22228;53.222;7.446;2022-12-29T05:45:48;9.80;99.90
36186;DHT22;22228;53.222;7.446;2022-12-29T05:48:38;9.80;99.90
36186;DHT22;22228;53.222;7.446;2022-12-29T05:51:37;10.00;99.90
36186;DHT22;22228;53.222;7.446;2022-12-29T05:54:01;10.10;99.90
36186;DHT22;22228;53.222;7.446;2022-12-29T05:56:21;10.10;99.90
36186;DHT22;22228;53.222;7.446;2022-12-29T05:58:50;10.10;99.90
36186;DHT22;22228;53.222;7.446;2022-12-29T06:01:11;10.10;99.90
36186;DHT22;22228;53.222;7.446;2022-12-29T06:03:33;10.10;99.90
36186;DHT22;22228;53.222;7.446;2022-12-29T06:06:19;10.00;99.90
36186;DHT22;22228;53.222;7.446;2022-12-29T06:08:40;10.00;99.90
36186;DHT22;22228;53.222;7.446;2022-12-29T06:11:13;10.00;99.90
36186;DHT22;22228;53.222;7.446;2022-12-29T06:13:39;9.90;99.90
36186;DHT22;22228;53.222;7.446;2022-12-29T06:16:01;9.80;99.90
36186;DHT22;22228;53.222;7.446;2022-12-29T06:18:24;9.80;99.90
36186;DHT22;22228;53.222;7.446;2022-12-29T06:20:44;9.70;99.90
36186;DHT22;22228;53.222;7.446;2022-12-29T06:23:11;9.70;99.90
36186;DHT22;22228;53.222;7.446;2022-12-29T06:25:33;9.70;99.90
36186;DHT22;22228;53.222;7.446;2022-12-29T06:28:03;9.70;99.90
36186;DHT22;22228;53.222;7.446;2022-12-29T06:30:31;9.60;99.90
36186;DHT22;22228;53.222;7.446;2022-12-29T06:32:54;9.60;99.90
36186;DHT22;22228;53.222;7.446;2022-12-29T06:35:16;9.50;99.90
36186;DHT22;22228;53.222;7.446;2022-12-29T06:37:41;9.60;99.90
36186;DHT22;22228;53.222;7.446;2022-12-29T06:40:32;9.60;99.90
36186;DHT22;22228;53.222;7.446;2022-12-29T06:43:15;9.60;99.90
36186;DHT22;22228;53.222;7.446;2022-12-29T06:45:44;9.60;99.90
36186;DHT22;22228;53.222;7.446;2022-12-29T06:48:06;9.70;99.90
36186;DHT22;22228;53.222;7.446;2022-12-29T06:50:50;9.80;99.90
36186;DHT22;22228;53.222;7.446;2022-12-29T06:53:12;9.90;99.90
36186;DHT22;22228;53.222;7.446;2022-12-29T06:55:32;9.90;99.90
36186;DHT22;22228;53.222;7.446;2022-12-29T06:57:54;10.00;99.90
36186;DHT22;22228;53.222;7.446;2022-12-29T07:00:47;10.10;99.90
36186;DHT22;22228;53.222;7.446;2022-12-29T07:03:09;10.10;99.90
36186;DHT22;22228;53.222;7.446;2022-12-29T07:05:29;10.00;99.90
36186;DHT22;22228;53.222;7.446;2022-12-29T07:07:57;10.00;99.90
36186;DHT22;22228;53.222;7.446;2022-12-29T07:10:19;10.20;99.90
36186;DHT22;22228;53.222;7.446;2022-12-29T07:12:39;10.20;99.90
36186;DHT22;22228;53.222;7.446;2022-12-29T07:15:00;10.20;99.90
36186;DHT22;22228;53.222;7.446;2022-12-29T07:17:22;10.20;99.90
36186;DHT22;22228;53.222;7.446;2022-12-29T07:19:42;10.20;99.90
36186;DHT22;22228;53.222;7.446;2022-12-29T07:22:05;10.10;99.90
36186;DHT22;22228;53.222;7.446;2022-12-29T07:24:26;10.10;99.90
36186;DHT22;22228;53.222;7.446;2022-12-29T07:26:53;10.00;99.90
36186;DHT22;22228;53.222;7.446;2022-12-29T07:29:14;9.90;99.90
36186;DHT22;22228;53.222;7.446;2022-12-29T07:31:41;9.90;99.90
36186;DHT22;22228;53.222;7.446;2022-12-29T07:34:03;9.90;99.90
36186;DHT22;22228;53.222;7.446;2022-12-29T07:36:24;9.90;99.90
36186;DHT22;22228;53.222;7.446;2022-12-29T07:38:44;9.80;99.90
36186;DHT22;22228;53.222;7.446;2022-12-29T07:41:09;9.80;99.90
36186;DHT22;22228;53.222;7.446;2022-12-29T07:43:31;9.90;99.90
36186;DHT22;22228;53.222;7.446;2022-12-29T07:46:18;9.90;99.90
36186;DHT22;22228;53.222;7.446;2022-12-29T07:49:06;9.90;99.90
36186;DHT22;22228;53.222;7.446;2022-12-29T07:51:27;9.90;99.90
36186;DHT22;22228;53.222;7.446;2022-12-29T07:53:47;9.90;99.90
36186;DHT22;22228;53.222;7.446;2022-12-29T07:56:08;9.90;99.90
36186;DHT22;22228;53.222;7.446;2022-12-29T07:58:32;9.90;99.90
36186;DHT22;22228;53.222;7.446;2022-12-29T08:00:55;9.90;99.90
36186;DHT22;22228;53.222;7.446;2022-12-29T08:03:20;9.90;99.90
36186;DHT22;22228;53.222;7.446;2022-12-29T08:05:42;9.80;99.90
36186;DHT22;22228;53.222;7.446;2022-12-29T08:08:03;9.90;99.90
36186;DHT22;22228;53.222;7.446;2022-12-29T08:10:48;9.90;99.90
36186;DHT22;22228;53.222;7.446;2022-12-29T08:13:10;9.80;99.90
36186;DHT22;22228;53.222;7.446;2022-12-29T08:15:31;9.80;99.90
36186;DHT22;22228;53.222;7.446;2022-12-29T08:17:54;9.80;99.90
36186;DHT22;22228;53.222;7.446;2022-12-29T08:20:14;9.90;99.90
36186;DHT22;22228;53.222;7.446;2022-12-29T08:22:37;9.80;99.90
36186;DHT22;22228;53.222;7.446;2022-12-29T08:24:59;9.80;99.90
36186;DHT22;22228;53.222;7.446;2022-12-29T08:27:19;9.80;99.90
36186;DHT22;22228;53.222;7.446;2022-12-29T08:30:07;9.80;99.90
36186;DHT22;22228;53.222;7.446;2022-12-29T08:32:57;9.80;99.90
36186;DHT22;22228;53.222;7.446;2022-12-29T08:35:17;9.90;99.90
36186;DHT22;22228;53.222;7.446;2022-12-29T08:37:46;9.90;99.90
36186;DHT22;22228;53.222;7.446;2022-12-29T08:40:08;9.90;99.90
36186;DHT22;22228;53.222;7.446;2022-12-29T08:42:35;9.90;99.90
36186;DHT22;22228;53.222;7.446;2022-12-29T08:45:23;9.90;99.90
36186;DHT22;22228;53.222;7.446;2022-12-29T08:47:44;9.80;99.90
36186;DHT22;22228;53.222;7.446;2022-12-29T08:50:06;9.80;99.90
36186;DHT22;22228;53.222;7.446;2022-12-29T08:52:29;9.80;99.90
36186;DHT22;22228;53.222;7.446;2022-12-29T08:54:51;9.80;99.90
36186;DHT22;22228;53.222;7.446;2022-12-29T08:57:14;9.80;99.90
36186;DHT22;22228;53.222;7.446;2022-12-29T08:59:50;9.90;99.90
36186;DHT22;22228;53.222;7.446;2022-12-29T09:02:12;9.90;99.90
36186;DHT22;22228;53.222;7.446;2022-12-29T09:04:33;10.00;99.90
36186;DHT22;22228;53.222;7.446;2022-12-29T09:06:54;10.00;99.90
36186;DHT22;22228;53.222;7.446;2022-12-29T09:10:00;10.00;99.90
36186;DHT22;22228;53.222;7.446;2022-12-29T09:12:21;10.10;99.90
36186;DHT22;22228;53.222;7.446;2022-12-29T09:14:42;10.00;99.90
36186;DHT22;22228;53.222;7.446;2022-12-29T09:17:08;10.00;99.90
36186;DHT22;22228;53.222;7.446;2022-12-29T09:20:13;10.00;99.90
36186;DHT22;22228;53.222;7.446;2022-12-29T09:22:35;9.90;99.90
36186;DHT22;22228;53.222;7.446;2022-12-29T09:24:59;9.90;99.90
36186;DHT22;22228;53.222;7.446;2022-12-29T09:27:26;9.90;99.90
36186;DHT22;22228;53.222;7.446;2022-12-29T09:29:48;9.90;99.90
36186;DHT22;22228;53.222;7.446;2022-12-29T09:32:14;9.90;99.90
36186;DHT22;22228;53.222;7.446;2022-12-29T09:35:01;10.00;99.90
36186;DHT22;22228;53.222;7.446;2022-12-29T09:37:48;10.00;99.90
36186;DHT22;22228;53.222;7.446;2022-12-29T09:40:22;10.10;99.90
36186;DHT22;22228;53.222;7.446;2022-12-29T09:45:40;10.10;99.90
36186;DHT22;22228;53.222;7.446;2022-12-29T09:48:30;10.10;99.90
36186;DHT22;22228;53.222;7.446;2022-12-29T09:51:20;10.10;99.90
36186;DHT22;22228;53.222;7.446;2022-12-29T09:53:44;10.10;99.90
36186;DHT22;22228;53.222;7.446;2022-12-29T09:56:30;10.00;99.90
36186;DHT22;22228;53.222;7.446;2022-12-29T09:59:08;9.90;99.90
36186;DHT22;22228;53.222;7.446;2022-12-29T10:01:58;9.90;99.90
36186;DHT22;22228;53.222;7.446;2022-12-29T10:04:19;9.70;99.90
36186;DHT22;22228;53.222;7.446;2022-12-29T10:06:54;9.70;99.90
36186;DHT22;22228;53.222;7.446;2022-12-29T10:09:22;9.70;99.90
36186;DHT22;22228;53.222;7.446;2022-12-29T10:12:02;9.70;99.90
36186;DHT22;22228;53.222;7.446;2022-12-29T10:14:58;9.60;99.90
36186;DHT22;22228;53.222;7.446;2022-12-29T10:18:20;9.60;99.90
36186;DHT22;22228;53.222;7.446;2022-12-29T10:20:49;9.70;99.90
36186;DHT22;22228;53.222;7.446;2022-12-29T10:23:22;9.70;99.90
36186;DHT22;22228;53.222;7.446;2022-12-29T10:25:54;9.80;99.90
36186;DHT22;22228;53.222;7.446;2022-12-29T10:28:23;9.80;99.90
36186;DHT22;22228;53.222;7.446;2022-12-29T10:30:53;9.80;99.90
36186;DHT22;22228;53.222;7.446;2022-12-29T10:33:21;9.90;99.90
36186;DHT22;22228;53.222;7.446;2022-12-29T10:35:43;9.90;99.90
36186;DHT22;22228;53.222;7.446;2022-12-29T10:38:17;9.90;99.90
36186;DHT22;22228;53.222;7.446;2022-12-29T10:41:08;9.80;99.90
36186;DHT22;22228;53.222;7.446;2022-12-29T10:43:34;9.70;99.90
36186;DHT22;22228;53.222;7.446;2022-12-29T10:46:25;9.60;99.90
36186;DHT22;22228;53.222;7.446;2022-12-29T10:48:53;9.40;99.90
36186;DHT22;22228;53.222;7.446;2022-12-29T10:51:21;9.30;99.90
36186;DHT22;22228;53.222;7.446;2022-12-29T10:53:45;9.20;99.90
36186;DHT22;22228;53.222;7.446;2022-12-29T10:56:15;9.20;99.90
36186;DHT22;22228;53.222;7.446;2022-12-29T10:58:46;9.10;99.90
36186;DHT22;22228;53.222;7.446;2022-12-29T11:01:12;9.10;99.90
36186;DHT22;22228;53.222;7.446;2022-12-29T11:04:00;9.00;99.90
36186;DHT22;22228;53.222;7.446;2022-12-29T11:06:26;9.00;99.90
36186;DHT22;22228;53.222;7.446;2022-12-29T11:08:54;9.10;99.90
36186;DHT22;22228;53.222;7.446;2022-12-29T11:11:23;9.10;99.90
36186;DHT22;22228;53.222;7.446;2022-12-29T11:13:48;9.10;99.90
36186;DHT22;22228;53.222;7.446;2022-12-29T11:16:27;9.00;99.90
36186;DHT22;22228;53.222;7.446;2022-12-29T11:19:27;8.90;99.90
36186;DHT22;22228;53.222;7.446;2022-12-29T11:21:55;8.90;99.90
36186;DHT22;22228;53.222;7.446;2022-12-29T11:24:22;8.90;99.90
36186;DHT22;22228;53.222;7.446;2022-12-29T11:26:44;8.90;99.90
36186;DHT22;22228;53.222;7.446;2022-12-29T11:29:21;8.90;99.90
36186;DHT22;22228;53.222;7.446;2022-12-29T11:31:43;8.90;99.90
36186;DHT22;22228;53.222;7.446;2022-12-29T11:34:06;9.00;99.90
36186;DHT22;22228;53.222;7.446;2022-12-29T11:36:28;9.00;99.90
36186;DHT22;22228;53.222;7.446;2022-12-29T11:38:50;9.00;99.90
36186;DHT22;22228;53.222;7.446;2022-12-29T11:41:13;9.00;99.90
36186;DHT22;22228;53.222;7.446;2022-12-29T11:43:41;9.00;99.90
36186;DHT22;22228;53.222;7.446;2022-12-29T11:46:04;9.00;99.90
36186;DHT22;22228;53.222;7.446;2022-12-29T11:48:27;9.00;99.90
36186;DHT22;22228;53.222;7.446;2022-12-29T11:50:51;8.90;99.90
36186;DHT22;22228;53.222;7.446;2022-12-29T11:53:20;8.90;99.90
36186;DHT22;22228;53.222;7.446;2022-12-29T11:55:51;8.90;99.90
36186;DHT22;22228;53.222;7.446;2022-12-29T11:58:14;8.90;99.90
36186;DHT22;22228;53.222;7.446;2022-12-29T12:00:38;8.80;99.90
36186;DHT22;22228;53.222;7.446;2022-12-29T12:03:00;8.80;99.90
36186;DHT22;22228;53.222;7.446;2022-12-29T12:05:27;8.80;99.90
36186;DHT22;22228;53.222;7.446;2022-12-29T12:07:54;8.70;99.90
36186;DHT22;22228;53.222;7.446;2022-12-29T12:10:25;8.70;99.90
36186;DHT22;22228;53.222;7.446;2022-12-29T12:12:50;8.60;99.90
36186;DHT22;22228;53.222;7.446;2022-12-29T12:15:17;8.60;99.90
36186;DHT22;22228;53.222;7.446;2022-12-29T12:17:50;8.70;99.90
36186;DHT22;22228;53.222;7.446;2022-12-29T12:20:18;8.70;99.90
36186;DHT22;22228;53.222;7.446;2022-12-29T12:22:45;8.60;99.90
36186;DHT22;22228;53.222;7.446;2022-12-29T12:25:12;8.60;99.90
36186;DHT22;22228;53.222;7.446;2022-12-29T12:27:39;8.60;99.90
36186;DHT22;22228;53.222;7.446;2022-12-29T12:30:03;8.60;99.90
36186;DHT22;22228;53.222;7.446;2022-12-29T12:32:29;8.60;99.90
36186;DHT22;22228;53.222;7.446;2022-12-29T12:34:51;8.60;99.90
36186;DHT22;22228;53.222;7.446;2022-12-29T12:37:23;8.70;99.90
36186;DHT22;22228;53.222;7.446;2022-12-29T12:40:02;8.70;99.90
36186;DHT22;22228;53.222;7.446;2022-12-29T12:42:39;8.70;99.90
36186;DHT22;22228;53.222;7.446;2022-12-29T12:45:17;8.80;99.90
36186;DHT22;22228;53.222;7.446;2022-12-29T12:47:53;8.90;99.90
36186;DHT22;22228;53.222;7.446;2022-12-29T12:50:43;8.90;99.90
36186;DHT22;22228;53.222;7.446;2022-12-29T12:53:19;8.90;99.90
36186;DHT22;22228;53.222;7.446;2022-12-29T12:55:57;8.90;99.90
36186;DHT22;22228;53.222;7.446;2022-12-29T12:58:27;9.00;99.90
36186;DHT22;22228;53.222;7.446;2022-12-29T13:01:11;9.10;99.90
36186;DHT22;22228;53.222;7.446;2022-12-29T13:03:47;9.30;99.90
36186;DHT22;22228;53.222;7.446;2022-12-29T13:06:18;9.40;99.90
36186;DHT22;22228;53.222;7.446;2022-12-29T13:09:07;9.60;99.90
36186;DHT22;22228;53.222;7.446;2022-12-29T13:11:43;9.80;99.90
36186;DHT22;22228;53.222;7.446;2022-12-29T13:14:19;10.00;99.90
36186;DHT22;22228;53.222;7.446;2022-12-29T13:16:47;10.10;99.90
36186;DHT22;22228;53.222;7.446;2022-12-29T13:19:14;10.10;99.90
36186;DHT22;22228;53.222;7.446;2022-12-29T13:21:51;10.10;99.90
36186;DHT22;22228;53.222;7.446;2022-12-29T13:24:22;10.20;99.90
36186;DHT22;22228;53.222;7.446;2022-12-29T13:26:47;10.10;99.90
36186;DHT22;22228;53.222;7.446;2022-12-29T13:29:15;10.00;99.90
36186;DHT22;22228;53.222;7.446;2022-12-29T13:31:45;9.90;99.90
36186;DHT22;22228;53.222;7.446;2022-12-29T13:34:15;9.80;99.90
36186;DHT22;22228;53.222;7.446;2022-12-29T13:36:40;9.80;99.90
36186;DHT22;22228;53.222;7.446;2022-12-29T13:39:08;9.70;99.90
36186;DHT22;22228;53.222;7.446;2022-12-29T13:41:34;9.60;99.90
36186;DHT22;22228;53.222;7.446;2022-12-29T13:46:38;9.60;99.90
36186;DHT22;22228;53.222;7.446;2022-12-29T13:49:04;9.50;99.90
36186;DHT22;22228;53.222;7.446;2022-12-29T13:51:26;9.40;99.90
36186;DHT22;22228;53.222;7.446;2022-12-29T13:53:56;9.40;99.90
36186;DHT22;22228;53.222;7.446;2022-12-29T13:56:24;9.30;99.90
36186;DHT22;22228;53.222;7.446;2022-12-29T13:58:50;9.20;99.90
36186;DHT22;22228;53.222;7.446;2022-12-29T14:01:18;9.20;99.90
36186;DHT22;22228;53.222;7.446;2022-12-29T14:03:47;9.20;99.90
36186;DHT22;22228;53.222;7.446;2022-12-29T14:06:16;9.20;99.90
36186;DHT22;22228;53.222;7.446;2022-12-29T14:08:39;9.20;99.90
36186;DHT22;22228;53.222;7.446;2022-12-29T14:11:07;9.20;99.90
36186;DHT22;22228;53.222;7.446;2022-12-29T14:13:28;9.20;99.90
36186;DHT22;22228;53.222;7.446;2022-12-29T14:15:52;9.20;99.90
36186;DHT22;22228;53.222;7.446;2022-12-29T14:18:16;9.20;99.90
36186;DHT22;22228;53.222;7.446;2022-12-29T14:20:39;9.30;99.90
36186;DHT22;22228;53.222;7.446;2022-12-29T14:23:24;9.30;99.90
36186;DHT22;22228;53.222;7.446;2022-12-29T14:26:00;9.30;99.90
36186;DHT22;22228;53.222;7.446;2022-12-29T14:28:30;9.30;99.90
36186;DHT22;22228;53.222;7.446;2022-12-29T14:30:53;9.40;99.90
36186;DHT22;22228;53.222;7.446;2022-12-29T14:33:13;9.30;99.90
36186;DHT22;22228;53.222;7.446;2022-12-29T14:35:41;9.30;99.90
36186;DHT22;22228;53.222;7.446;2022-12-29T14:38:12;9.30;99.90
36186;DHT22;22228;53.222;7.446;2022-12-29T14:40:34;9.30;99.90
36186;DHT22;22228;53.222;7.446;2022-12-29T14:42:55;9.30;99.90
36186;DHT22;22228;53.222;7.446;2022-12-29T14:45:26;9.30;99.90
36186;DHT22;22228;53.222;7.446;2022-12-29T14:47:48;9.30;99.90
36186;DHT22;22228;53.222;7.446;2022-12-29T14:50:14;9.30;99.90
36186;DHT22;22228;53.222;7.446;2022-12-29T14:52:45;9.30;99.90
36186;DHT22;22228;53.222;7.446;2022-12-29T14:55:28;9.30;99.90
36186;DHT22;22228;53.222;7.446;2022-12-29T14:57:52;9.20;99.90
36186;DHT22;22228;53.222;7.446;2022-12-29T15:00:21;9.30;99.90
36186;DHT22;22228;53.222;7.446;2022-12-29T15:02:45;9.30;99.90
36186;DHT22;22228;53.222;7.446;2022-12-29T15:05:22;9.20;99.90
36186;DHT22;22228;53.222;7.446;2022-12-29T15:07:46;9.20;99.90
36186;DHT22;22228;53.222;7.446;2022-12-29T15:10:13;9.20;99.90
36186;DHT22;22228;53.222;7.446;2022-12-29T15:12:37;9.10;99.90
36186;DHT22;22228;53.222;7.446;2022-12-29T15:14:59;9.00;99.90
36186;DHT22;22228;53.222;7.446;2022-12-29T15:17:27;9.00;99.90
36186;DHT22;22228;53.222;7.446;2022-12-29T15:19:47;9.00;99.90
36186;DHT22;22228;53.222;7.446;2022-12-29T15:22:09;9.00;99.90
36186;DHT22;22228;53.222;7.446;2022-12-29T15:24:30;9.00;99.90
36186;DHT22;22228;53.222;7.446;2022-12-29T15:26:53;9.00;99.90
36186;DHT22;22228;53.222;7.446;2022-12-29T15:29:30;9.00;99.90
36186;DHT22;22228;53.222;7.446;2022-12-29T15:31:51;9.00;99.90
36186;DHT22;22228;53.222;7.446;2022-12-29T15:34:12;9.00;99.90
36186;DHT22;22228;53.222;7.446;2022-12-29T15:36:39;9.00;99.90
36186;DHT22;22228;53.222;7.446;2022-12-29T15:39:00;9.00;99.90
36186;DHT22;22228;53.222;7.446;2022-12-29T15:41:26;9.00;99.90
36186;DHT22;22228;53.222;7.446;2022-12-29T15:43:56;9.00;99.90
36186;DHT22;22228;53.222;7.446;2022-12-29T15:46:19;8.90;99.90
36186;DHT22;22228;53.222;7.446;2022-12-29T15:48:40;8.90;99.90
36186;DHT22;22228;53.222;7.446;2022-12-29T15:51:01;8.80;99.90
36186;DHT22;22228;53.222;7.446;2022-12-29T15:53:24;8.80;99.90
36186;DHT22;22228;53.222;7.446;2022-12-29T15:55:46;8.70;99.90
36186;DHT22;22228;53.222;7.446;2022-12-29T15:58:20;8.60;99.90
36186;DHT22;22228;53.222;7.446;2022-12-29T16:00:46;8.60;99.90
36186;DHT22;22228;53.222;7.446;2022-12-29T16:03:12;8.50;99.90
36186;DHT22;22228;53.222;7.446;2022-12-29T16:05:35;8.50;99.90
36186;DHT22;22228;53.222;7.446;2022-12-29T16:07:58;8.50;99.90
36186;DHT22;22228;53.222;7.446;2022-12-29T16:10:26;8.40;99.90
36186;DHT22;22228;53.222;7.446;2022-12-29T16:12:49;8.40;99.90
36186;DHT22;22228;53.222;7.446;2022-12-29T16:15:13;8.40;99.90
36186;DHT22;22228;53.222;7.446;2022-12-29T16:17:43;8.30;99.90
36186;DHT22;22228;53.222;7.446;2022-12-29T16:20:17;8.30;99.90
36186;DHT22;22228;53.222;7.446;2022-12-29T16:22:40;8.30;99.90
36186;DHT22;22228;53.222;7.446;2022-12-29T16:25:06;8.30;99.90
36186;DHT22;22228;53.222;7.446;2022-12-29T16:27:34;8.30;99.90
36186;DHT22;22228;53.222;7.446;2022-12-29T16:29:56;8.30;99.90
36186;DHT22;22228;53.222;7.446;2022-12-29T16:32:26;8.30;99.90
36186;DHT22;22228;53.222;7.446;2022-12-29T16:34:46;8.40;99.90
36186;DHT22;22228;53.222;7.446;2022-12-29T16:37:27;8.50;99.90
36186;DHT22;22228;53.222;7.446;2022-12-29T16:39:48;8.50;99.90
36186;DHT22;22228;53.222;7.446;2022-12-29T16:42:34;8.50;99.90
36186;DHT22;22228;53.222;7.446;2022-12-29T16:45:08;8.50;99.90
36186;DHT22;22228;53.222;7.446;2022-12-29T16:47:42;8.40;99.90
36186;DHT22;22228;53.222;7.446;2022-12-29T16:50:13;8.40;99.90
36186;DHT22;22228;53.222;7.446;2022-12-29T16:52:39;8.40;99.90
36186;DHT22;22228;53.222;7.446;2022-12-29T16:55:01;8.30;99.90
36186;DHT22;22228;53.222;7.446;2022-12-29T16:57:25;8.20;99.90
36186;DHT22;22228;53.222;7.446;2022-12-29T16:59:46;8.20;99.90
36186;DHT22;22228;53.222;7.446;2022-12-29T17:02:14;8.20;99.90
36186;DHT22;22228;53.222;7.446;2022-12-29T17:04:36;8.10;99.90
36186;DHT22;22228;53.222;7.446;2022-12-29T17:06:56;8.10;99.90
36186;DHT22;22228;53.222;7.446;2022-12-29T17:09:19;8.10;99.90
36186;DHT22;22228;53.222;7.446;2022-12-29T17:11:40;8.20;99.90
36186;DHT22;22228;53.222;7.446;2022-12-29T17:14:37;8.20;99.90
36186;DHT22;22228;53.222;7.446;2022-12-29T17:16:59;8.30;99.90
36186;DHT22;22228;53.222;7.446;2022-12-29T17:19:24;8.40;99.90
36186;DHT22;22228;53.222;7.446;2022-12-29T17:21:48;8.30;99.90
36186;DHT22;22228;53.222;7.446;2022-12-29T17:24:15;8.30;99.90
36186;DHT22;22228;53.222;7.446;2022-12-29T17:26:35;8.20;99.90
36186;DHT22;22228;53.222;7.446;2022-12-29T17:28:56;8.20;99.90
36186;DHT22;22228;53.222;7.446;2022-12-29T17:31:17;8.30;99.90
36186;DHT22;22228;53.222;7.446;2022-12-29T17:33:39;8.30;99.90
36186;DHT22;22228;53.222;7.446;2022-12-29T17:36:00;8.30;99.90
36186;DHT22;22228;53.222;7.446;2022-12-29T17:38:28;8.30;99.90
36186;DHT22;22228;53.222;7.446;2022-12-29T17:40:49;8.30;99.90
36186;DHT22;22228;53.222;7.446;2022-12-29T17:43:13;8.30;99.90
36186;DHT22;22228;53.222;7.446;2022-12-29T17:45:34;8.20;99.90
36186;DHT22;22228;53.222;7.446;2022-12-29T17:47:55;8.10;99.90
36186;DHT22;22228;53.222;7.446;2022-12-29T17:50:20;8.10;99.90
36186;DHT22;22228;53.222;7.446;2022-12-29T17:52:42;8.00;99.90
36186;DHT22;22228;53.222;7.446;2022-12-29T17:55:14;7.90;99.90
36186;DHT22;22228;53.222;7.446;2022-12-29T17:57:35;7.80;99.90
36186;DHT22;22228;53.222;7.446;2022-12-29T17:59:55;7.80;99.90
36186;DHT22;22228;53.222;7.446;2022-12-29T18:02:23;7.70;99.90
36186;DHT22;22228;53.222;7.446;2022-12-29T18:04:44;7.60;99.90
36186;DHT22;22228;53.222;7.446;2022-12-29T18:07:07;7.60;99.90
36186;DHT22;22228;53.222;7.446;2022-12-29T18:09:28;7.60;99.90
36186;DHT22;22228;53.222;7.446;2022-12-29T18:11:50;7.60;99.90
36186;DHT22;22228;53.222;7.446;2022-12-29T18:14:11;7.50;99.90
36186;DHT22;22228;53.222;7.446;2022-12-29T18:16:32;7.40;99.90
36186;DHT22;22228;53.222;7.446;2022-12-29T18:18:53;7.40;99.90
36186;DHT22;22228;53.222;7.446;2022-12-29T18:21:16;7.40;99.90
36186;DHT22;22228;53.222;7.446;2022-12-29T18:23:37;7.40;99.90
36186;DHT22;22228;53.222;7.446;2022-12-29T18:26:00;7.40;99.90
36186;DHT22;22228;53.222;7.446;2022-12-29T18:28:22;7.40;99.90
36186;DHT22;22228;53.222;7.446;2022-12-29T18:30:43;7.40;99.90
36186;DHT22;22228;53.222;7.446;2022-12-29T18:33:03;7.40;99.90
36186;DHT22;22228;53.222;7.446;2022-12-29T18:35:29;7.40;99.90
36186;DHT22;22228;53.222;7.446;2022-12-29T18:37:52;7.40;99.90
36186;DHT22;22228;53.222;7.446;2022-12-29T18:40:12;7.30;99.90
36186;DHT22;22228;53.222;7.446;2022-12-29T18:42:33;7.30;99.90
36186;DHT22;22228;53.222;7.446;2022-12-29T18:44:55;7.20;99.90